Whale Point, California Weather observations

Data are for observation ending at time listed.
 Day   Time    Ave.   Ave.  Ave.  Vector   Max.   Stn.    Total    Solar   Ave.  
  of    of     Air    Rel.  Wind   Wind    Wind   Baro.  Precip.   Rad.    Soil  
Year   Day     Temp.  Hum.  Speed  Dir.    Gust   Pres.                    Temp. 
2015   (PST)    F      %     mph   deg.    mph     mb.     in.     W/m2     F   
------------------------------------------------------------------------------
  90    0:00   55.5    54    2.4    38      5.6   995.3    0.00       0    68.8
  90    0:10   61.1    34    1.5   145      4.2   995.3    0.00       0    68.7
  90    0:20   57.5    54    1.8   176      4.0   995.6    0.00       0    68.6
  90    0:30   55.0    63    2.5   168      7.0   995.6    0.00       0    68.6
  90    0:40   54.3    67    2.3     4      4.8   995.6    0.00       0    68.5
  90    0:50   53.7    68    1.5   173      5.6   995.6    0.00       0    68.4
  90    1:00   53.2    71    2.4   174      5.0   995.6    0.00       0    68.3
  90    1:10   53.1    69    1.8   192      4.5   995.6    0.00       0    68.2
  90    1:20   52.6    70    1.9    94      4.4   995.6    0.00       0    68.1
  90    1:30   54.4    59    2.4    90      7.7   995.6    0.00       0    68.0
  90    1:40   56.6    51    1.6    32      3.8   995.6    0.00       0    67.9
  90    1:50   57.3    45    2.6   160      5.6   995.6    0.00       0    67.8
  90    2:00   53.9    60    1.5   171      3.4   995.6    0.00       0    67.7
  90    2:10   52.8    66    1.5   176      3.9   995.6    0.00       0    67.7
  90    2:20   52.4    69    1.8   144      4.2   995.6    0.00       0    67.6
  90    2:30   52.0    70    1.5   118      5.1   995.3    0.00       0    67.5
  90    2:40   52.5    70    4.3   146      8.1   995.3    0.00       0    67.4
  90    2:50   53.0    69    0.7   273      3.9   995.3    0.00       0    67.3
  90    3:00   52.0    71    2.0    20      4.0   995.3    0.00       0    67.2
  90    3:10   52.9    64    2.4   351      4.7   995.3    0.00       0    67.2
  90    3:20   53.0    63    2.0   156      4.5   995.3    0.00       0    67.1
  90    3:30   51.8    70    1.1   134      2.3   995.3    0.00       0    67.0
  90    3:40   51.9    68    1.5    37      3.2   995.3    0.00       0    66.9
  90    3:50   52.8    61    1.0    75      2.6   995.3    0.00       0    66.8
  90    4:00   54.0    57    0.8   166      2.0   995.3    0.00       0    66.7
  90    4:10   52.4    64    1.2   148      3.0   995.3    0.00       0    66.6
  90    4:20   51.6    71    1.3   115      3.5   995.3    0.00       0    66.5
  90    4:30   51.8    72    1.4    32      3.1   995.3    0.00       0    66.5
  90    4:40   52.0    65    1.3   162      3.1   995.3    0.00       0    66.4
  90    4:50   51.4    71    2.1   170      3.5   995.3    0.00       0    66.3
  90    5:00   51.1    74    1.2    58      4.8   995.6    0.00       0    66.2
  90    5:10   51.9    67    2.1    47      5.3   995.6    0.00       0    66.1
  90    5:20   51.5    68    1.5   147      3.3   995.6    0.00       0    66.0
  90    5:30   50.8    73    0.9   132      2.9   995.6    0.00       0    65.9
  90    5:40   51.2    74    1.2    88      3.4   995.6    0.00       0    65.9
  90    5:50   51.7    72    1.4    33      3.5   995.6    0.00       1    65.8
  90    6:00   52.3    68    1.5    68      4.6   995.6    0.00       4    65.7
  90    6:10   52.6    63    1.1   206      4.0   995.6    0.00       8    65.6
  90    6:20   51.5    69    3.2   174      6.3   995.9    0.00      13    65.5
  90    6:30   51.7    72    2.4   190      4.8   995.9    0.00      18    65.4
  90    6:40   51.1    69    1.9    39      3.5   996.3    0.00      21    65.4
  90    6:50   52.1    64    1.4    92      4.3   996.3    0.00      24    65.3
  90    7:00   52.5    64    1.3   126      3.4   996.6    0.00      27    65.2
  90    7:10   52.2    65    1.1   126      3.5   996.6    0.00      28    65.1
  90    7:20   52.2    65    1.1   127      3.3   996.6    0.00      30    65.0
  90    7:30   52.1    68    2.1   194      5.0   996.6    0.00      33    65.0
  90    7:40   52.5    67    3.0   148      7.1   997.0    0.00      58    64.9
  90    7:50   54.7    58    2.0   137      5.3   997.3    0.00     375    64.8
  90    8:00   56.5    57    1.9   197      3.4   997.3    0.00     422    64.7
  90    8:10   56.8    56    2.4   154      4.8   997.6    0.00     456    64.6
  90    8:20   58.7    53    1.3   170      4.0   997.6    0.00     496    64.5
  90    8:30   59.8    51    2.1   156      4.6   997.6    0.00     531    64.4
  90    8:40   61.0    49    1.5   185      5.0   998.0    0.00     566    64.4
  90    8:50   58.6    59    2.9   178      5.4   998.0    0.00     593    64.3
  90    9:00   58.8    56    2.8   165      6.7   998.3    0.00     627    64.3
  90    9:10   59.3    56    3.8   184      8.0   998.0    0.00     661    64.3
  90    9:20   59.6    57    3.4   193      7.5   998.3    0.00     680    64.3
  90    9:30   60.6    58    2.9   186      6.0   998.3    0.00     703    64.2
  90    9:40   60.0    59    3.5   189      7.4   998.3    0.00     727    64.1
  90    9:50   60.1    59    2.7   216      6.1   998.3    0.00     751    64.1
  90   10:00   60.7    59    3.6   252      9.3   998.6    0.00     777    64.1
  90   10:10   60.6    60    4.9   277     10.9   998.6    0.00     801    64.0
  90   10:20   61.3    58    7.4   275     15.9   998.6    0.00     819    64.0
  90   10:30   62.2    57    5.6   232     19.8   998.6    0.00     835    64.0
  90   10:40   63.3    58    3.6   233      9.5   998.6    0.00     851    64.0
  90   10:50   61.9    60    5.9   281     12.6   998.6    0.00     867    64.0
  90   11:00   61.5    62    5.2   264     13.2   998.6    0.00     881    64.0
  90   11:10   60.5    66    5.0   293     13.2   998.3    0.00     898    64.0
  90   11:20   61.6    64    4.5   266     12.8   998.3    0.00     907    64.0
  90   11:30   60.0    69    6.0   236     11.8   998.3    0.00     907    64.0
  90   11:40   60.4    68    5.3   241     11.5   998.3    0.00     918    64.0
  90   11:50   60.1    68    6.7   242     12.8   998.3    0.00     929    64.0
  90   12:00   60.0    68    5.4   272     15.5   998.3    0.00     931    64.1
  90   12:10   59.8    68    7.0   275     17.8   998.3    0.00     934    64.1
  90   12:20   61.3    66    6.1   246     14.8   998.3    0.00     930    64.2
  90   12:30   61.0    65    6.8   268     13.5   998.3    0.00     930    64.2
  90   12:40   61.3    63    6.6   270     16.4   998.0    0.00     927    64.3
  90   12:50   61.2    63    6.3   281     15.2   998.0    0.00     923    64.4
  90   13:00   61.8    62    6.1   259     12.5   998.0    0.00     915    64.5
  90   13:10   62.5    60    4.6   276     11.8   997.6    0.00     908    64.6
  90   13:20   62.6    60    5.2   292     12.3   997.6    0.00     899    64.7
  90   13:30   61.3    60    5.8   326     18.2   997.6    0.00     892    64.8
  90   13:40   62.0    58    6.3   324     19.4   997.3    0.00     872    64.9
  90   13:50   60.2    60    8.7   342     19.4   997.3    0.00     857    65.1
  90   14:00   60.5    59    8.6   328     21.0   997.3    0.00     834    65.2
  90   14:10   60.5    59    6.7   318     21.7   997.0    0.00     813    65.3
  90   14:20   61.5    57    6.2   268     12.7   997.0    0.00     787    65.5
  90   14:30   61.2    56    6.8   282     22.2   997.0    0.00     766    65.7
  90   14:40   61.2    56    6.0   292     20.2   997.0    0.00     739    65.8
  90   14:50   60.2    58    6.0   323     15.9   997.0    0.00     711    65.9
  90   15:00   60.3    57    6.6   321     19.4   997.0    0.00     684    66.1
  90   15:10   62.1    54    6.7   261     13.7   997.0    0.00     655    66.2
  90   15:20   61.0    55    6.9   321     16.9   997.0    0.00     618    66.4
  90   15:30   60.1    55    9.5   347     24.2   997.0    0.00     584    66.5
  90   15:40   60.3    54    7.5   356     17.2   997.0    0.00     558    66.7
  90   15:50   62.9    50    4.4   287     10.7   997.0    0.00     515    66.8
  90   16:00   61.5    51    6.8   309     16.5   997.0    0.00     476    66.9
  90   16:10   60.1    51    9.9   356     22.4   997.0    0.00     437    67.1
  90   16:20   59.5    50    8.6    26     26.2   997.0    0.00     403    67.2
  90   16:30   59.6    49    9.2    12     27.6   997.0    0.00     361    67.3
  90   16:40   58.1    52   13.6    14     26.2   997.3    0.00     325    67.5
  90   16:50   58.8    51    7.5   308     16.1   997.3    0.00     287    67.6
  90   17:00   58.9    50    5.6   294     13.6   997.3    0.00     252    67.7
  90   17:10   59.1    50    5.4   290     17.0   997.6    0.00     238    67.8
  90   17:20   57.5    52    7.5   313     20.5   997.6    0.00     203    67.9
  90   17:30   56.8    54    6.2   298     13.1   997.3    0.00     169    67.9
  90   17:40   56.6    54    5.7   280     15.1   997.3    0.00     142    68.0
  90   17:50   56.9    54    3.6   323     10.3   997.3    0.00     110    68.1
  90   18:00   56.7    55    2.0   332      5.6   997.0    0.00      76    68.1
  90   18:10   56.4    56    2.0   289      6.6   997.0    0.00      51    68.2
  90   18:20   55.5    58    1.2   124      3.9   996.6    0.00      26    68.3
  90   18:30   54.6    60    2.4   150      5.6   996.6    0.00       7    68.3
  90   18:40   54.3    59    2.6   313      8.1   996.6    0.00       2    68.3
  90   18:50   54.6    54    5.0   329     13.2   997.0    0.00       0    68.4
  90   19:00   55.5    52    4.3    14     10.7   997.0    0.00       0    68.4
  90   19:10   55.5    49    6.2     5     11.4   997.0    0.00       0    68.4
  90   19:20   57.5    41    6.2     1     14.2   997.0    0.00       0    68.4
  90   19:30   57.3    42    3.5    17     12.6   997.0    0.00       0    68.4
  90   19:40   58.7    35    4.9     5     10.9   997.3    0.00       0    68.4
  90   19:50   58.2    38    4.5     3     14.6   997.3    0.00       0    68.4
  90   20:00   59.7    33    8.5    34     15.6   997.3    0.00       0    68.3
  90   20:10   59.7    34    6.6     3     12.6   997.6    0.00       0    68.3
  90   20:20   59.7    34    7.0     5     18.6   997.6    0.00       0    68.3
  90   20:30   59.8    33   10.0    13     19.9   998.0    0.00       0    68.2
  90   20:40   60.3    32    7.9     7     15.2   998.0    0.00       0    68.2
  90   20:50   58.8    38    2.1    44      7.7   998.0    0.00       0    68.1
  90   21:00   57.5    42    3.4   303     11.2   998.0    0.00       0    68.1
  90   21:10   57.3    42    5.4   284     14.2   998.0    0.00       0    68.0
  90   21:20   57.1    45    5.0   306     16.2   998.0    0.00       0    68.0
  90   21:30   56.5    46    4.4   286     12.7   998.0    0.00       0    67.9
  90   21:40   56.3    47    4.4   276     16.9   998.0    0.00       0    67.9
  90   21:50   56.7    46   10.4   340     24.9   998.3    0.00       0    67.8
  90   22:00   57.2    44    7.0   306     18.6   998.3    0.00       0    67.7
  90   22:10   57.7    42    6.4   315     17.0   998.3    0.00       0    67.7
  90   22:20   58.8    39    4.9   296     11.7   998.3    0.00       0    67.6
  90   22:30   57.1    44    3.0   286     10.5   998.3    0.00       0    67.5
  90   22:40   56.9    45    4.3   279     15.3   998.3    0.00       0    67.5
  90   22:50   56.4    47    4.7   285     11.7   998.3    0.00       0    67.4
  90   23:00   55.9    48    4.4   285     10.2   998.3    0.00       0    67.3
  90   23:10   57.2    42    5.2   302     15.5   998.6    0.00       0    67.3
  90   23:20   56.6    45    2.2   235      7.0   998.6    0.00       0    67.2
  90   23:30   54.6    51    2.1   151      6.3   998.3    0.00       0    67.1

Return to Whale Point graphs page.


Western Regional Climate Center,wrcc@dri.edu